createdAt,value
2018-09-03T00:01:15.132Z,23.04
2018-09-03T00:03:44.280Z,23.00
2018-09-03T00:06:13.476Z,23.06
2018-09-03T00:08:42.428Z,23.06
2018-09-03T00:11:11.717Z,22.96
2018-09-03T00:13:41.059Z,22.92
2018-09-03T00:16:10.303Z,22.85
2018-09-03T00:18:39.300Z,22.86
2018-09-03T00:21:08.445Z,22.82
2018-09-03T00:23:37.680Z,22.77
2018-09-03T00:26:07.016Z,22.73
2018-09-03T00:28:36.253Z,22.75
2018-09-03T00:31:10.376Z,22.79
2018-09-03T00:33:44.919Z,22.73
2018-09-03T00:36:19.363Z,22.64
2018-09-03T00:38:53.235Z,22.62
2018-09-03T00:41:27.135Z,22.63
2018-09-03T00:46:34.984Z,22.48
2018-09-03T00:49:04.276Z,22.37
2018-09-03T00:51:33.242Z,22.46
2018-09-03T00:54:02.636Z,22.48
2018-09-03T00:56:31.873Z,22.38
2018-09-03T00:59:01.086Z,22.43
2018-09-03T01:01:30.142Z,22.28
2018-09-03T01:03:59.420Z,22.36
2018-09-03T01:06:28.596Z,22.28
2018-09-03T01:08:58.052Z,22.19
2018-09-03T01:11:27.010Z,22.18
2018-09-03T01:13:56.858Z,22.16
2018-09-03T01:16:25.911Z,22.12
2018-09-03T01:18:56.452Z,22.07
2018-09-03T01:21:26.591Z,21.98
2018-09-03T01:23:56.312Z,22.03
2018-09-03T01:26:25.558Z,21.94
2018-09-03T01:28:54.735Z,22.01
2018-09-03T01:31:23.880Z,21.90
2018-09-03T01:33:54.039Z,21.82
2018-09-03T01:36:23.263Z,21.81
2018-09-03T01:38:52.448Z,21.82
2018-09-03T01:41:21.692Z,21.82
2018-09-03T01:43:50.811Z,21.81
2018-09-03T01:46:20.166Z,21.81
2018-09-03T01:48:49.288Z,21.76
2018-09-03T01:51:18.253Z,21.75
2018-09-03T01:53:47.658Z,21.73
2018-09-03T01:56:16.849Z,21.70
2018-09-03T01:58:46.003Z,21.71
2018-09-03T02:01:15.224Z,21.68
2018-09-03T02:03:44.727Z,21.64
2018-09-03T02:06:14.173Z,21.64
2018-09-03T02:08:43.024Z,21.60
2018-09-03T02:11:12.316Z,21.62
2018-09-03T02:13:41.610Z,21.53
2018-09-03T02:16:10.915Z,21.49
2018-09-03T02:18:40.182Z,21.45
2018-09-03T02:21:09.664Z,21.68
2018-09-03T02:23:39.285Z,21.68
2018-09-03T02:26:08.523Z,21.67
2018-09-03T02:28:37.723Z,21.66
2018-09-03T02:31:07.114Z,21.65
2018-09-03T02:33:36.524Z,21.61
2018-09-03T02:36:06.075Z,21.68
2018-09-03T02:38:35.211Z,21.71
2018-09-03T02:41:04.628Z,21.71
2018-09-03T02:43:33.540Z,21.73
2018-09-03T02:46:02.810Z,21.77
2018-09-03T02:48:31.871Z,21.76
2018-09-03T02:51:01.251Z,21.81
2018-09-03T02:53:30.360Z,21.72
2018-09-03T02:55:59.385Z,21.83
2018-09-03T02:58:28.551Z,21.87
2018-09-03T03:00:57.988Z,21.76
2018-09-03T03:03:27.195Z,21.69
2018-09-03T03:05:56.264Z,21.63
2018-09-03T03:08:25.504Z,21.60
2018-09-03T03:10:54.573Z,21.56
2018-09-03T03:13:23.801Z,21.62
2018-09-03T03:15:52.874Z,21.60
2018-09-03T03:18:22.260Z,21.64
2018-09-03T03:20:51.706Z,21.64
2018-09-03T03:23:21.031Z,21.65
2018-09-03T03:25:50.416Z,21.61
2018-09-03T03:28:19.805Z,21.53
2018-09-03T03:30:48.967Z,21.50
2018-09-03T03:33:18.235Z,21.38
2018-09-03T03:35:47.203Z,21.42
2018-09-03T03:38:16.152Z,21.35
2018-09-03T03:40:45.294Z,21.41
2018-09-03T03:43:14.543Z,21.47
2018-09-03T03:45:43.745Z,21.50
2018-09-03T03:48:12.975Z,21.50
2018-09-03T03:50:42.237Z,21.47
2018-09-03T03:53:11.470Z,21.42
2018-09-03T03:55:40.771Z,21.41
2018-09-03T03:58:10.159Z,21.39
2018-09-03T04:00:39.559Z,21.37
2018-09-03T04:03:08.516Z,21.38
2018-09-03T04:05:37.804Z,21.37
2018-09-03T04:08:07.008Z,21.36
2018-09-03T04:10:36.256Z,21.33
2018-09-03T04:13:06.025Z,21.33
2018-09-03T04:15:36.300Z,21.40
2018-09-03T04:18:05.427Z,21.48
2018-09-03T04:20:34.641Z,21.51
2018-09-03T04:23:03.940Z,21.45
2018-09-03T04:25:33.151Z,21.45
2018-09-03T04:28:02.627Z,21.37
2018-09-03T04:30:31.827Z,21.47
2018-09-03T04:33:00.984Z,21.50
2018-09-03T04:35:30.172Z,21.55
2018-09-03T04:37:59.224Z,21.61
2018-09-03T04:40:28.353Z,21.68
2018-09-03T04:42:57.616Z,21.71
2018-09-03T04:45:26.655Z,21.71
2018-09-03T04:47:56.020Z,21.72
2018-09-03T04:50:25.319Z,21.84
2018-09-03T04:52:54.453Z,22.03
2018-09-03T04:55:23.876Z,21.95
2018-09-03T04:57:53.141Z,22.06
2018-09-03T05:00:22.480Z,22.12
2018-09-03T05:02:51.695Z,22.14
2018-09-03T05:05:21.019Z,22.17
2018-09-03T05:07:50.393Z,22.27
2018-09-03T05:10:19.587Z,22.31
2018-09-03T05:12:50.176Z,22.39
2018-09-03T05:15:19.661Z,22.40
2018-09-03T05:17:48.992Z,22.47
2018-09-03T05:20:18.308Z,22.49
2018-09-03T05:22:47.554Z,22.57
2018-09-03T05:25:16.935Z,22.67
2018-09-03T05:27:46.095Z,22.73
2018-09-03T05:30:15.353Z,22.78
2018-09-03T05:32:44.743Z,22.84
2018-09-03T05:35:14.108Z,22.96
2018-09-03T05:37:43.463Z,23.11
2018-09-03T05:40:12.419Z,23.28
2018-09-03T05:42:41.831Z,23.44
2018-09-03T05:45:10.906Z,23.60
2018-09-03T05:47:40.411Z,23.73
2018-09-03T05:50:09.722Z,23.84
2018-09-03T05:52:39.149Z,23.92
2018-09-03T05:55:08.438Z,24.03
2018-09-03T05:57:37.796Z,24.22
2018-09-03T06:00:07.542Z,24.34
2018-09-03T06:02:36.512Z,24.33
2018-09-03T06:05:05.615Z,24.41
2018-09-03T06:07:34.920Z,24.47
2018-09-03T06:10:04.246Z,24.56
2018-09-03T06:12:33.272Z,24.61
2018-09-03T06:15:02.309Z,24.64
2018-09-03T06:17:31.736Z,24.70
2018-09-03T06:20:00.936Z,24.80
2018-09-03T06:22:30.317Z,24.88
2018-09-03T06:24:59.639Z,24.91
2018-09-03T06:27:28.691Z,25.01
2018-09-03T06:29:57.895Z,25.10
2018-09-03T06:32:27.168Z,25.21
2018-09-03T06:34:56.513Z,25.29
2018-09-03T06:37:25.863Z,25.38
2018-09-03T06:39:55.214Z,25.48
2018-09-03T06:42:24.517Z,25.57
2018-09-03T06:44:53.622Z,25.59
2018-09-03T06:47:23.003Z,25.69
2018-09-03T06:49:52.143Z,25.79
2018-09-03T06:52:21.357Z,25.88
2018-09-03T06:54:50.716Z,25.95
2018-09-03T06:57:20.152Z,25.99
2018-09-03T06:59:49.149Z,26.06
2018-09-03T07:02:18.377Z,26.12
2018-09-03T07:04:47.848Z,26.20
2018-09-03T07:07:16.957Z,26.28
2018-09-03T07:09:46.404Z,26.31
2018-09-03T07:12:15.748Z,26.45
2018-09-03T07:14:44.739Z,26.54
2018-09-03T07:17:13.926Z,26.62
2018-09-03T07:19:43.139Z,26.70
2018-09-03T07:22:12.589Z,26.76
2018-09-03T07:24:41.935Z,26.80
2018-09-03T07:27:11.307Z,26.88
2018-09-03T07:29:40.730Z,26.96
2018-09-03T07:32:10.107Z,27.03
2018-09-03T07:34:39.338Z,27.16
2018-09-03T07:37:08.524Z,27.26
2018-09-03T07:39:37.792Z,27.39
2018-09-03T07:42:07.099Z,27.48
2018-09-03T07:44:36.266Z,27.59
2018-09-03T07:47:05.672Z,27.63
2018-09-03T07:49:35.036Z,27.72
2018-09-03T07:52:04.380Z,27.90
2018-09-03T07:54:33.331Z,28.16
2018-09-03T07:57:02.771Z,28.49
2018-09-03T07:59:32.065Z,28.81
2018-09-03T08:02:01.659Z,29.41
2018-09-03T08:04:31.180Z,30.16
2018-09-03T08:07:00.620Z,31.00
2018-09-03T08:09:29.863Z,31.68
2018-09-03T08:11:59.078Z,32.32
2018-09-03T08:14:28.474Z,33.03
2018-09-03T08:16:57.728Z,33.56
2018-09-03T08:19:26.930Z,34.19
2018-09-03T08:21:55.943Z,34.78
2018-09-03T08:24:25.352Z,35.54
2018-09-03T08:26:54.741Z,36.14
2018-09-03T08:29:23.699Z,36.71
2018-09-03T08:31:53.155Z,36.99
2018-09-03T08:34:22.200Z,37.04
2018-09-03T08:36:51.445Z,37.22
2018-09-03T08:39:20.506Z,37.26
2018-09-03T08:41:49.836Z,37.33
2018-09-03T08:44:18.735Z,37.41
2018-09-03T08:46:47.999Z,37.41
2018-09-03T08:49:17.389Z,37.59
2018-09-03T08:51:46.280Z,37.82
2018-09-03T08:54:15.472Z,37.58
2018-09-03T08:56:44.703Z,37.58
2018-09-03T08:59:14.118Z,37.73
2018-09-03T09:01:43.521Z,37.76
2018-09-03T09:04:12.723Z,37.47
2018-09-03T09:06:41.725Z,37.61
2018-09-03T09:09:10.925Z,37.65
2018-09-03T09:11:40.118Z,37.44
2018-09-03T09:14:09.496Z,37.19
2018-09-03T09:16:38.596Z,36.86
2018-09-03T09:19:07.676Z,36.43
2018-09-03T09:21:36.936Z,35.96
2018-09-03T09:24:06.386Z,35.69
2018-09-03T09:26:35.894Z,35.45
2018-09-03T09:29:05.340Z,35.28
2018-09-03T09:31:34.811Z,35.41
2018-09-03T09:34:03.668Z,35.58
2018-09-03T09:36:33.010Z,36.09
2018-09-03T09:39:02.393Z,36.84
2018-09-03T09:41:34.123Z,37.58
2018-09-03T09:44:04.411Z,38.38
2018-09-03T09:46:33.834Z,38.90
2018-09-03T09:49:03.165Z,39.61
2018-09-03T09:51:32.521Z,40.56
2018-09-03T09:54:01.414Z,41.32
2018-09-03T09:56:30.485Z,42.10
2018-09-03T09:58:59.780Z,42.74
2018-09-03T10:01:35.862Z,42.79
2018-09-03T10:04:04.970Z,43.43
2018-09-03T10:06:34.283Z,44.02
2018-09-03T10:09:04.467Z,44.63
2018-09-03T10:11:33.821Z,45.16
2018-09-03T10:14:03.179Z,45.39
2018-09-03T10:19:09.522Z,45.39
2018-09-03T10:21:38.762Z,45.94
2018-09-03T10:24:07.669Z,46.54
2018-09-03T10:26:37.093Z,46.35
2018-09-03T10:29:06.323Z,46.83
2018-09-03T10:31:35.388Z,47.11
2018-09-03T10:34:04.640Z,47.09
2018-09-03T10:36:33.935Z,46.29
2018-09-03T10:39:03.366Z,46.04
2018-09-03T10:41:32.576Z,45.88
2018-09-03T10:44:01.767Z,46.30
2018-09-03T10:46:31.001Z,46.09
2018-09-03T10:49:00.235Z,46.08
2018-09-03T10:51:29.411Z,46.04
2018-09-03T10:53:58.550Z,46.72
2018-09-03T10:56:27.571Z,46.89
2018-09-03T10:58:56.912Z,47.22
2018-09-03T11:01:25.856Z,47.52
2018-09-03T11:03:55.199Z,46.95
2018-09-03T11:06:24.453Z,47.66
2018-09-03T11:08:53.493Z,46.79
2018-09-03T11:11:22.777Z,46.53
2018-09-03T11:13:52.045Z,47.06
2018-09-03T11:16:21.436Z,47.24
2018-09-03T11:18:50.515Z,47.38
2018-09-03T11:21:20.364Z,46.66
2018-09-03T11:23:49.560Z,46.11
2018-09-03T11:26:18.681Z,46.34
2018-09-03T11:28:47.830Z,46.80
2018-09-03T11:31:17.090Z,46.83
2018-09-03T11:33:46.276Z,47.24
2018-09-03T11:36:15.235Z,47.25
2018-09-03T11:38:44.575Z,46.61
2018-09-03T11:41:13.883Z,47.37
2018-09-03T11:43:43.093Z,47.36
2018-09-03T11:46:12.469Z,47.34
2018-09-03T11:48:41.483Z,47.57
2018-09-03T11:51:10.741Z,46.68
2018-09-03T11:53:40.135Z,46.93
2018-09-03T11:56:09.349Z,45.99
2018-09-03T11:58:38.520Z,45.74
2018-09-03T12:01:08.057Z,46.38
2018-09-03T12:03:37.249Z,46.57
2018-09-03T12:06:06.702Z,46.09
2018-09-03T12:08:35.927Z,45.93
2018-09-03T12:11:05.353Z,45.98
2018-09-03T12:13:34.555Z,46.05
2018-09-03T12:16:09.688Z,46.54
2018-09-03T12:18:39.790Z,46.61
2018-09-03T12:21:09.099Z,46.24
2018-09-03T12:23:38.216Z,46.06
2018-09-03T12:26:08.311Z,46.12
2018-09-03T12:28:37.761Z,46.45
2018-09-03T12:31:07.316Z,46.42
2018-09-03T12:33:36.530Z,45.48
2018-09-03T12:36:06.383Z,45.45
2018-09-03T12:38:35.930Z,45.62
2018-09-03T12:41:06.061Z,44.95
2018-09-03T12:43:35.775Z,43.88
2018-09-03T12:46:06.358Z,44.11
2018-09-03T12:48:35.315Z,44.01
2018-09-03T12:51:05.258Z,44.30
2018-09-03T12:53:35.820Z,44.15
2018-09-03T12:56:05.204Z,44.25
2018-09-03T12:58:34.483Z,43.96
2018-09-03T13:01:03.555Z,44.29
2018-09-03T13:03:32.885Z,44.95
2018-09-03T13:06:02.054Z,44.54
2018-09-03T13:08:31.273Z,44.20
2018-09-03T13:11:00.664Z,43.97
2018-09-03T13:13:29.916Z,43.62
2018-09-03T13:15:59.180Z,43.41
2018-09-03T13:18:28.064Z,43.03
2018-09-03T13:20:57.016Z,43.09
2018-09-03T13:23:26.019Z,42.90
2018-09-03T13:25:55.315Z,42.47
2018-09-03T13:28:24.614Z,41.11
2018-09-03T13:30:53.634Z,40.24
2018-09-03T13:33:22.881Z,39.43
2018-09-03T13:35:51.998Z,38.63
2018-09-03T13:38:21.011Z,38.53
2018-09-03T13:40:50.133Z,38.69
2018-09-03T13:43:19.396Z,38.40
2018-09-03T13:45:48.591Z,37.88
2018-09-03T13:48:17.844Z,37.15
2018-09-03T13:50:46.685Z,36.80
2018-09-03T13:53:16.028Z,36.62
2018-09-03T13:55:45.196Z,36.22
2018-09-03T13:58:14.414Z,35.99
2018-09-03T14:00:43.615Z,35.82
2018-09-03T14:03:12.926Z,35.71
2018-09-03T14:05:42.224Z,35.62
2018-09-03T14:08:11.475Z,35.42
2018-09-03T14:10:40.665Z,35.14
2018-09-03T14:13:09.710Z,34.80
2018-09-03T14:15:38.884Z,34.71
2018-09-03T14:18:08.423Z,34.53
2018-09-03T14:20:37.550Z,34.44
2018-09-03T14:23:06.960Z,34.19
2018-09-03T14:25:36.200Z,33.92
2018-09-03T14:28:05.459Z,33.92
2018-09-03T14:30:34.853Z,33.74
2018-09-03T14:33:04.036Z,33.64
2018-09-03T14:35:32.872Z,33.67
2018-09-03T14:38:01.767Z,33.61
2018-09-03T14:40:31.039Z,33.46
2018-09-03T14:43:00.095Z,33.32
2018-09-03T14:45:29.221Z,33.27
2018-09-03T14:47:58.717Z,33.13
2018-09-03T14:50:27.615Z,33.03
2018-09-03T14:52:56.959Z,32.93
2018-09-03T14:55:26.253Z,32.85
2018-09-03T14:57:55.403Z,32.66
2018-09-03T15:00:24.832Z,32.56
2018-09-03T15:02:54.059Z,32.48
2018-09-03T15:05:23.250Z,32.39
2018-09-03T15:07:52.499Z,32.40
2018-09-03T15:10:21.391Z,32.34
2018-09-03T15:12:50.527Z,32.25
2018-09-03T15:15:19.767Z,32.26
2018-09-03T15:17:49.015Z,32.15
2018-09-03T15:20:18.367Z,32.08
2018-09-03T15:22:47.573Z,31.98
2018-09-03T15:25:16.867Z,31.90
2018-09-03T15:27:46.220Z,31.78
2018-09-03T15:30:15.471Z,31.70
2018-09-03T15:32:44.669Z,31.64
2018-09-03T15:35:14.007Z,31.55
2018-09-03T15:37:43.151Z,31.52
2018-09-03T15:40:12.415Z,31.42
2018-09-03T15:42:41.615Z,31.29
2018-09-03T15:45:11.012Z,31.21
2018-09-03T15:47:40.166Z,31.21
2018-09-03T15:50:09.660Z,31.13
2018-09-03T15:52:38.867Z,31.12
2018-09-03T15:55:08.172Z,31.02
2018-09-03T15:57:37.494Z,30.94
2018-09-03T16:00:07.835Z,30.85
2018-09-03T16:02:36.880Z,30.73
2018-09-03T16:05:06.375Z,30.66
2018-09-03T16:07:35.336Z,30.52
2018-09-03T16:10:04.620Z,30.38
2018-09-03T16:12:33.803Z,30.39
2018-09-03T16:15:02.788Z,30.36
2018-09-03T16:17:31.835Z,30.12
2018-09-03T16:20:00.795Z,30.23
2018-09-03T16:22:30.146Z,30.20
2018-09-03T16:24:59.527Z,30.21
2018-09-03T16:27:28.891Z,30.12
2018-09-03T16:29:58.293Z,30.03
2018-09-03T16:32:27.433Z,29.92
2018-09-03T16:34:56.715Z,29.86
2018-09-03T16:37:26.034Z,29.89
2018-09-03T16:39:54.939Z,29.85
2018-09-03T16:42:24.587Z,29.81
2018-09-03T16:44:54.036Z,29.79
2018-09-03T16:47:22.991Z,29.73
2018-09-03T16:49:52.428Z,29.75
2018-09-03T16:52:21.600Z,29.65
2018-09-03T16:54:50.773Z,29.72
2018-09-03T16:57:20.224Z,29.77
2018-09-03T16:59:49.457Z,29.79
2018-09-03T17:02:18.672Z,29.76
2018-09-03T17:04:47.555Z,29.73
2018-09-03T17:07:16.628Z,29.71
2018-09-03T17:09:45.887Z,29.57
2018-09-03T17:12:14.867Z,29.53
2018-09-03T17:14:44.188Z,29.43
2018-09-03T17:17:13.005Z,29.46
2018-09-03T17:19:42.478Z,29.38
2018-09-03T17:22:11.508Z,29.35
2018-09-03T17:24:40.696Z,29.33
2018-09-03T17:27:10.012Z,29.29
2018-09-03T17:29:39.213Z,29.26
2018-09-03T17:32:08.563Z,29.24
2018-09-03T17:34:38.041Z,29.24
2018-09-03T17:37:07.358Z,29.21
2018-09-03T17:39:36.647Z,29.09
2018-09-03T17:42:05.960Z,29.09
2018-09-03T17:44:34.999Z,29.15
2018-09-03T17:47:04.363Z,29.15
2018-09-03T17:49:33.414Z,29.10
2018-09-03T17:52:02.557Z,29.10
2018-09-03T17:54:31.783Z,29.14
2018-09-03T17:57:00.764Z,29.10
2018-09-03T17:59:29.890Z,29.08
2018-09-03T18:01:59.058Z,29.01
2018-09-03T18:04:28.454Z,28.90
2018-09-03T18:06:57.775Z,28.79
2018-09-03T18:09:26.684Z,28.59
2018-09-03T18:11:55.958Z,28.56
2018-09-03T18:14:25.268Z,28.51
2018-09-03T18:16:54.495Z,28.34
2018-09-03T18:19:24.511Z,28.28
2018-09-03T18:21:53.879Z,28.17
2018-09-03T18:24:23.139Z,28.06
2018-09-03T18:26:52.484Z,27.98
2018-09-03T18:29:21.365Z,27.92
2018-09-03T18:31:50.626Z,27.88
2018-09-03T18:34:19.782Z,27.83
2018-09-03T18:36:49.106Z,27.81
2018-09-03T18:39:18.056Z,27.78
2018-09-03T18:41:47.515Z,27.77
2018-09-03T18:44:16.751Z,27.74
2018-09-03T18:46:46.111Z,27.77
2018-09-03T18:49:15.324Z,27.76
2018-09-03T18:51:46.328Z,27.70
2018-09-03T18:54:15.634Z,27.65
2018-09-03T18:56:44.949Z,27.54
2018-09-03T18:59:14.250Z,27.48
2018-09-03T19:01:43.632Z,27.46
2018-09-03T19:04:12.892Z,27.43
2018-09-03T19:06:42.279Z,27.46
2018-09-03T19:09:11.444Z,27.43
2018-09-03T19:11:40.747Z,27.44
2018-09-03T19:14:09.979Z,27.43
2018-09-03T19:16:39.556Z,27.41
2018-09-03T19:19:08.826Z,27.43
2018-09-03T19:21:38.125Z,27.36
2018-09-03T19:24:07.301Z,27.35
2018-09-03T19:26:36.723Z,27.33
2018-09-03T19:29:05.763Z,27.35
2018-09-03T19:31:35.130Z,27.31
2018-09-03T19:34:05.153Z,27.27
2018-09-03T19:36:34.628Z,27.28
2018-09-03T19:39:04.096Z,27.29
2018-09-03T19:41:33.399Z,27.28
2018-09-03T19:44:02.792Z,27.31
2018-09-03T19:46:31.807Z,27.18
2018-09-03T19:49:01.235Z,27.19
2018-09-03T19:51:30.297Z,27.22
2018-09-03T19:53:59.522Z,27.17
2018-09-03T19:56:28.910Z,27.11
2018-09-03T19:58:57.824Z,27.08
2018-09-03T20:01:27.085Z,26.96
2018-09-03T20:03:56.198Z,26.90
2018-09-03T20:06:25.516Z,26.85
2018-09-03T20:08:54.531Z,26.79
2018-09-03T20:11:23.861Z,26.79
2018-09-03T20:13:53.079Z,26.77
2018-09-03T20:16:22.031Z,26.71
2018-09-03T20:18:51.065Z,26.62
2018-09-03T20:21:20.456Z,26.58
2018-09-03T20:23:49.582Z,26.56
2018-09-03T20:26:18.643Z,26.52
2018-09-03T20:28:48.026Z,26.43
2018-09-03T20:31:17.375Z,26.37
2018-09-03T20:33:46.724Z,26.26
2018-09-03T20:36:16.183Z,26.28
2018-09-03T20:38:45.627Z,26.26
2018-09-03T20:41:15.023Z,26.29
2018-09-03T20:43:44.223Z,26.25
2018-09-03T20:46:13.253Z,26.13
2018-09-03T20:48:42.699Z,26.03
2018-09-03T20:51:11.759Z,25.98
2018-09-03T20:53:41.036Z,25.94
2018-09-03T20:56:10.032Z,25.86
2018-09-03T20:58:38.962Z,25.74
2018-09-03T21:01:08.442Z,25.67
2018-09-03T21:03:37.792Z,25.66
2018-09-03T21:06:06.892Z,25.63
2018-09-03T21:08:36.175Z,25.57
2018-09-03T21:11:05.505Z,25.53
2018-09-03T21:13:34.884Z,25.35
2018-09-03T21:16:03.896Z,25.42
2018-09-03T21:18:33.330Z,25.42
2018-09-03T21:21:02.719Z,25.49
2018-09-03T21:23:32.044Z,25.33
2018-09-03T21:26:01.380Z,25.33
2018-09-03T21:28:30.960Z,25.26
2018-09-03T21:31:00.349Z,25.09
2018-09-03T21:33:29.352Z,25.09
2018-09-03T21:35:58.546Z,25.22
2018-09-03T21:38:28.024Z,25.22
2018-09-03T21:40:56.949Z,25.11
2018-09-03T21:43:26.273Z,25.04
2018-09-03T21:45:55.485Z,25.20
2018-09-03T21:48:24.806Z,25.24
2018-09-03T21:50:53.915Z,25.30
2018-09-03T21:53:23.408Z,25.33
2018-09-03T21:55:52.751Z,25.32
2018-09-03T21:58:22.108Z,25.36
2018-09-03T22:00:51.464Z,25.31
2018-09-03T22:03:20.807Z,25.25
2018-09-03T22:05:50.068Z,25.14
2018-09-03T22:08:19.072Z,25.14
2018-09-03T22:10:48.283Z,25.04
2018-09-03T22:13:17.332Z,25.10
2018-09-03T22:15:46.681Z,25.02
2018-09-03T22:18:15.953Z,24.95
2018-09-03T22:20:45.348Z,25.05
2018-09-03T22:23:14.739Z,25.02
2018-09-03T22:25:43.759Z,24.80
2018-09-03T22:28:13.035Z,24.83
2018-09-03T22:30:42.453Z,24.76
2018-09-03T22:33:11.840Z,24.83
2018-09-03T22:35:41.176Z,24.72
2018-09-03T22:38:10.494Z,24.63
2018-09-03T22:40:39.720Z,24.52
2018-09-03T22:43:09.031Z,24.55
2018-09-03T22:45:38.349Z,24.44
2018-09-03T22:48:07.337Z,24.29
2018-09-03T22:50:36.417Z,24.26
2018-09-03T22:53:05.866Z,24.15
2018-09-03T22:55:34.867Z,24.15
2018-09-03T22:58:03.843Z,24.01
2018-09-03T23:00:33.248Z,24.07
2018-09-03T23:03:02.204Z,24.21
2018-09-03T23:05:31.578Z,24.07
2018-09-03T23:08:00.635Z,23.81
2018-09-03T23:10:29.837Z,23.91
2018-09-03T23:12:59.373Z,23.86
2018-09-03T23:15:28.587Z,23.88
2018-09-03T23:17:57.851Z,23.87
2018-09-03T23:20:27.178Z,23.93
2018-09-03T23:22:56.719Z,24.05
2018-09-03T23:25:26.027Z,24.18
2018-09-03T23:27:55.439Z,24.13
2018-09-03T23:30:24.464Z,24.09
2018-09-03T23:32:53.344Z,24.09
2018-09-03T23:35:22.280Z,23.99
2018-09-03T23:37:51.394Z,24.04
2018-09-03T23:40:20.644Z,24.12
2018-09-03T23:42:49.898Z,24.14
2018-09-03T23:45:19.297Z,24.06
2018-09-03T23:47:48.500Z,24.03
2018-09-03T23:50:17.783Z,23.82
2018-09-03T23:52:47.042Z,23.87
2018-09-03T23:55:15.952Z,23.79
2018-09-03T23:57:45.412Z,23.69
